sensor_id;sensor_type;location;lat;lon;timestamp;P1;durP1;ratioP1;P2;durP2;ratioP2
47669;SDS011;33408;52.062;11.722;2023-06-10T00:00:47;10.77;;;5.15;;
47669;SDS011;33408;52.062;11.722;2023-06-10T00:03:13;11.10;;;4.82;;
47669;SDS011;33408;52.062;11.722;2023-06-10T00:05:41;11.30;;;5.00;;
47669;SDS011;33408;52.062;11.722;2023-06-10T00:08:07;11.43;;;4.53;;
47669;SDS011;33408;52.062;11.722;2023-06-10T00:10:37;11.60;;;5.43;;
47669;SDS011;33408;52.062;11.722;2023-06-10T00:13:04;13.05;;;5.47;;
47669;SDS011;33408;52.062;11.722;2023-06-10T00:15:34;12.43;;;4.55;;
47669;SDS011;33408;52.062;11.722;2023-06-10T00:18:01;10.05;;;5.13;;
47669;SDS011;33408;52.062;11.722;2023-06-10T00:20:28;9.13;;;4.80;;
47669;SDS011;33408;52.062;11.722;2023-06-10T00:22:55;12.23;;;5.05;;
47669;SDS011;33408;52.062;11.722;2023-06-10T00:25:24;14.77;;;5.28;;
47669;SDS011;33408;52.062;11.722;2023-06-10T00:27:53;11.98;;;5.15;;
47669;SDS011;33408;52.062;11.722;2023-06-10T00:30:21;10.82;;;5.60;;
47669;SDS011;33408;52.062;11.722;2023-06-10T00:32:48;11.38;;;5.25;;
47669;SDS011;33408;52.062;11.722;2023-06-10T00:35:15;11.25;;;4.90;;
47669;SDS011;33408;52.062;11.722;2023-06-10T00:37:42;11.15;;;4.80;;
47669;SDS011;33408;52.062;11.722;2023-06-10T00:40:09;10.07;;;4.78;;
47669;SDS011;33408;52.062;11.722;2023-06-10T00:42:36;11.32;;;4.97;;
47669;SDS011;33408;52.062;11.722;2023-06-10T00:45:05;12.25;;;6.05;;
47669;SDS011;33408;52.062;11.722;2023-06-10T00:47:33;9.30;;;5.38;;
47669;SDS011;33408;52.062;11.722;2023-06-10T00:50:00;11.07;;;5.05;;
47669;SDS011;33408;52.062;11.722;2023-06-10T00:52:28;13.10;;;5.28;;
47669;SDS011;33408;52.062;11.722;2023-06-10T00:54:56;13.60;;;5.25;;
47669;SDS011;33408;52.062;11.722;2023-06-10T00:57:24;9.85;;;5.25;;
47669;SDS011;33408;52.062;11.722;2023-06-10T00:59:51;10.98;;;5.60;;
47669;SDS011;33408;52.062;11.722;2023-06-10T01:02:19;13.40;;;5.35;;
47669;SDS011;33408;52.062;11.722;2023-06-10T01:04:46;13.73;;;6.22;;
47669;SDS011;33408;52.062;11.722;2023-06-10T01:07:15;12.57;;;5.28;;
47669;SDS011;33408;52.062;11.722;2023-06-10T01:09:49;11.52;;;5.47;;
47669;SDS011;33408;52.062;11.722;2023-06-10T01:12:30;11.88;;;5.20;;
47669;SDS011;33408;52.062;11.722;2023-06-10T01:15:00;9.77;;;5.50;;
47669;SDS011;33408;52.062;11.722;2023-06-10T01:17:31;12.52;;;5.22;;
47669;SDS011;33408;52.062;11.722;2023-06-10T01:19:58;11.40;;;5.38;;
47669;SDS011;33408;52.062;11.722;2023-06-10T01:22:27;9.18;;;4.65;;
47669;SDS011;33408;52.062;11.722;2023-06-10T01:24:57;12.95;;;6.07;;
47669;SDS011;33408;52.062;11.722;2023-06-10T01:27:25;8.75;;;5.43;;
47669;SDS011;33408;52.062;11.722;2023-06-10T01:29:56;15.73;;;5.88;;
47669;SDS011;33408;52.062;11.722;2023-06-10T01:32:29;12.00;;;5.47;;
47669;SDS011;33408;52.062;11.722;2023-06-10T01:35:01;12.07;;;6.10;;
47669;SDS011;33408;52.062;11.722;2023-06-10T01:37:30;11.30;;;5.60;;
47669;SDS011;33408;52.062;11.722;2023-06-10T01:39:58;10.75;;;6.00;;
47669;SDS011;33408;52.062;11.722;2023-06-10T01:42:26;11.52;;;5.55;;
47669;SDS011;33408;52.062;11.722;2023-06-10T01:44:54;12.80;;;6.38;;
47669;SDS011;33408;52.062;11.722;2023-06-10T01:47:21;11.82;;;5.47;;
47669;SDS011;33408;52.062;11.722;2023-06-10T01:49:48;13.80;;;6.47;;
47669;SDS011;33408;52.062;11.722;2023-06-10T01:52:14;12.02;;;6.28;;
47669;SDS011;33408;52.062;11.722;2023-06-10T01:54:43;9.93;;;5.68;;
47669;SDS011;33408;52.062;11.722;2023-06-10T01:57:10;12.85;;;6.00;;
47669;SDS011;33408;52.062;11.722;2023-06-10T01:59:36;12.40;;;5.60;;
47669;SDS011;33408;52.062;11.722;2023-06-10T02:02:04;11.32;;;6.05;;
47669;SDS011;33408;52.062;11.722;2023-06-10T02:04:31;12.25;;;6.90;;
47669;SDS011;33408;52.062;11.722;2023-06-10T02:06:58;11.00;;;6.63;;
47669;SDS011;33408;52.062;11.722;2023-06-10T02:09:29;13.73;;;6.47;;
47669;SDS011;33408;52.062;11.722;2023-06-10T02:11:57;10.15;;;6.10;;
47669;SDS011;33408;52.062;11.722;2023-06-10T02:14:24;10.80;;;5.75;;
47669;SDS011;33408;52.062;11.722;2023-06-10T02:16:51;12.13;;;6.63;;
47669;SDS011;33408;52.062;11.722;2023-06-10T02:19:21;12.77;;;6.28;;
47669;SDS011;33408;52.062;11.722;2023-06-10T02:21:48;13.73;;;6.80;;
47669;SDS011;33408;52.062;11.722;2023-06-10T02:24:15;10.55;;;5.35;;
47669;SDS011;33408;52.062;11.722;2023-06-10T02:26:42;12.68;;;6.85;;
47669;SDS011;33408;52.062;11.722;2023-06-10T02:29:11;17.20;;;6.18;;
47669;SDS011;33408;52.062;11.722;2023-06-10T02:31:38;15.43;;;6.22;;
47669;SDS011;33408;52.062;11.722;2023-06-10T02:34:06;17.48;;;7.00;;
47669;SDS011;33408;52.062;11.722;2023-06-10T02:36:32;13.10;;;6.80;;
47669;SDS011;33408;52.062;11.722;2023-06-10T02:39:01;12.18;;;6.78;;
47669;SDS011;33408;52.062;11.722;2023-06-10T02:41:28;11.88;;;6.57;;
47669;SDS011;33408;52.062;11.722;2023-06-10T02:43:54;12.98;;;6.93;;
47669;SDS011;33408;52.062;11.722;2023-06-10T02:46:22;11.80;;;6.55;;
47669;SDS011;33408;52.062;11.722;2023-06-10T02:48:49;10.70;;;6.22;;
47669;SDS011;33408;52.062;11.722;2023-06-10T02:51:17;19.10;;;7.93;;
47669;SDS011;33408;52.062;11.722;2023-06-10T02:53:43;10.20;;;6.45;;
47669;SDS011;33408;52.062;11.722;2023-06-10T02:56:10;13.95;;;6.97;;
47669;SDS011;33408;52.062;11.722;2023-06-10T02:58:37;12.75;;;6.88;;
47669;SDS011;33408;52.062;11.722;2023-06-10T03:01:04;13.55;;;6.90;;
47669;SDS011;33408;52.062;11.722;2023-06-10T03:03:32;10.50;;;6.85;;
47669;SDS011;33408;52.062;11.722;2023-06-10T03:06:00;10.77;;;6.80;;
47669;SDS011;33408;52.062;11.722;2023-06-10T03:08:27;13.00;;;7.03;;
47669;SDS011;33408;52.062;11.722;2023-06-10T03:10:54;11.48;;;6.55;;
47669;SDS011;33408;52.062;11.722;2023-06-10T03:13:21;16.90;;;7.18;;
47669;SDS011;33408;52.062;11.722;2023-06-10T03:15:49;13.13;;;6.93;;
47669;SDS011;33408;52.062;11.722;2023-06-10T03:18:16;13.20;;;7.45;;
47669;SDS011;33408;52.062;11.722;2023-06-10T03:20:44;12.02;;;6.88;;
47669;SDS011;33408;52.062;11.722;2023-06-10T03:23:11;17.65;;;7.90;;
47669;SDS011;33408;52.062;11.722;2023-06-10T03:25:38;13.73;;;7.70;;
47669;SDS011;33408;52.062;11.722;2023-06-10T03:28:04;14.68;;;6.63;;
47669;SDS011;33408;52.062;11.722;2023-06-10T03:30:31;11.80;;;6.75;;
47669;SDS011;33408;52.062;11.722;2023-06-10T03:32:58;12.50;;;7.10;;
47669;SDS011;33408;52.062;11.722;2023-06-10T03:35:24;14.43;;;8.32;;
47669;SDS011;33408;52.062;11.722;2023-06-10T03:37:52;13.75;;;7.40;;
47669;SDS011;33408;52.062;11.722;2023-06-10T03:40:19;12.75;;;6.90;;
47669;SDS011;33408;52.062;11.722;2023-06-10T03:42:46;14.43;;;7.38;;
47669;SDS011;33408;52.062;11.722;2023-06-10T03:45:13;14.55;;;7.47;;
47669;SDS011;33408;52.062;11.722;2023-06-10T03:47:39;14.13;;;7.60;;
47669;SDS011;33408;52.062;11.722;2023-06-10T03:50:07;16.35;;;6.95;;
47669;SDS011;33408;52.062;11.722;2023-06-10T03:52:34;12.30;;;6.78;;
47669;SDS011;33408;52.062;11.722;2023-06-10T03:55:03;14.18;;;6.72;;
47669;SDS011;33408;52.062;11.722;2023-06-10T03:57:30;17.45;;;7.28;;
47669;SDS011;33408;52.062;11.722;2023-06-10T03:59:57;13.35;;;6.00;;
47669;SDS011;33408;52.062;11.722;2023-06-10T04:02:24;11.05;;;5.70;;
47669;SDS011;33408;52.062;11.722;2023-06-10T04:04:51;10.02;;;5.82;;
47669;SDS011;33408;52.062;11.722;2023-06-10T04:07:18;12.82;;;6.00;;
47669;SDS011;33408;52.062;11.722;2023-06-10T04:09:45;11.00;;;6.20;;
47669;SDS011;33408;52.062;11.722;2023-06-10T04:12:13;11.27;;;5.85;;
47669;SDS011;33408;52.062;11.722;2023-06-10T04:14:41;13.90;;;5.72;;
47669;SDS011;33408;52.062;11.722;2023-06-10T04:17:08;14.85;;;6.60;;
47669;SDS011;33408;52.062;11.722;2023-06-10T04:19:35;11.48;;;5.68;;
47669;SDS011;33408;52.062;11.722;2023-06-10T04:22:02;10.77;;;5.75;;
47669;SDS011;33408;52.062;11.722;2023-06-10T04:24:30;10.80;;;5.35;;
47669;SDS011;33408;52.062;11.722;2023-06-10T04:26:57;11.57;;;5.53;;
47669;SDS011;33408;52.062;11.722;2023-06-10T04:29:25;13.18;;;5.43;;
47669;SDS011;33408;52.062;11.722;2023-06-10T04:31:51;10.30;;;5.70;;
47669;SDS011;33408;52.062;11.722;2023-06-10T04:34:18;11.32;;;6.10;;
47669;SDS011;33408;52.062;11.722;2023-06-10T04:36:45;12.18;;;5.90;;
47669;SDS011;33408;52.062;11.722;2023-06-10T04:39:12;9.70;;;5.25;;
47669;SDS011;33408;52.062;11.722;2023-06-10T04:41:41;13.45;;;5.68;;
47669;SDS011;33408;52.062;11.722;2023-06-10T04:44:08;12.70;;;5.93;;
47669;SDS011;33408;52.062;11.722;2023-06-10T04:46:37;13.05;;;6.25;;
47669;SDS011;33408;52.062;11.722;2023-06-10T04:49:04;13.98;;;6.03;;
47669;SDS011;33408;52.062;11.722;2023-06-10T04:51:31;10.20;;;5.30;;
47669;SDS011;33408;52.062;11.722;2023-06-10T04:53:58;13.02;;;6.18;;
47669;SDS011;33408;52.062;11.722;2023-06-10T04:56:27;10.75;;;5.88;;
47669;SDS011;33408;52.062;11.722;2023-06-10T04:58:55;14.10;;;5.75;;
47669;SDS011;33408;52.062;11.722;2023-06-10T05:01:22;14.18;;;5.00;;
47669;SDS011;33408;52.062;11.722;2023-06-10T05:03:50;8.75;;;5.00;;
47669;SDS011;33408;52.062;11.722;2023-06-10T05:06:16;12.63;;;5.30;;
47669;SDS011;33408;52.062;11.722;2023-06-10T05:08:43;13.82;;;6.03;;
47669;SDS011;33408;52.062;11.722;2023-06-10T05:11:10;13.93;;;5.25;;
47669;SDS011;33408;52.062;11.722;2023-06-10T05:13:37;12.70;;;5.07;;
47669;SDS011;33408;52.062;11.722;2023-06-10T05:16:05;10.02;;;5.50;;
47669;SDS011;33408;52.062;11.722;2023-06-10T05:18:32;12.50;;;5.28;;
47669;SDS011;33408;52.062;11.722;2023-06-10T05:21:02;11.93;;;5.15;;
47669;SDS011;33408;52.062;11.722;2023-06-10T05:23:28;11.27;;;5.75;;
47669;SDS011;33408;52.062;11.722;2023-06-10T05:25:55;11.23;;;5.35;;
47669;SDS011;33408;52.062;11.722;2023-06-10T05:28:23;10.80;;;5.45;;
47669;SDS011;33408;52.062;11.722;2023-06-10T05:30:50;13.15;;;5.80;;
47669;SDS011;33408;52.062;11.722;2023-06-10T05:33:16;10.45;;;5.55;;
47669;SDS011;33408;52.062;11.722;2023-06-10T05:35:43;11.23;;;5.90;;
47669;SDS011;33408;52.062;11.722;2023-06-10T05:38:11;10.00;;;4.82;;
47669;SDS011;33408;52.062;11.722;2023-06-10T05:40:38;10.98;;;5.28;;
47669;SDS011;33408;52.062;11.722;2023-06-10T05:43:05;10.38;;;5.47;;
47669;SDS011;33408;52.062;11.722;2023-06-10T05:45:32;10.27;;;5.50;;
47669;SDS011;33408;52.062;11.722;2023-06-10T05:47:58;11.57;;;5.43;;
47669;SDS011;33408;52.062;11.722;2023-06-10T05:50:25;16.02;;;5.78;;
47669;SDS011;33408;52.062;11.722;2023-06-10T05:52:52;11.45;;;5.60;;
47669;SDS011;33408;52.062;11.722;2023-06-10T05:55:21;11.10;;;5.93;;
47669;SDS011;33408;52.062;11.722;2023-06-10T05:57:48;15.02;;;6.35;;
47669;SDS011;33408;52.062;11.722;2023-06-10T06:00:25;13.88;;;5.78;;
47669;SDS011;33408;52.062;11.722;2023-06-10T06:02:51;9.73;;;5.70;;
47669;SDS011;33408;52.062;11.722;2023-06-10T06:05:19;11.07;;;5.45;;
47669;SDS011;33408;52.062;11.722;2023-06-10T06:07:46;12.32;;;6.05;;
47669;SDS011;33408;52.062;11.722;2023-06-10T06:10:12;14.52;;;6.28;;
47669;SDS011;33408;52.062;11.722;2023-06-10T06:12:41;12.50;;;5.65;;
47669;SDS011;33408;52.062;11.722;2023-06-10T06:15:08;10.38;;;5.55;;
47669;SDS011;33408;52.062;11.722;2023-06-10T06:17:35;13.70;;;6.00;;
47669;SDS011;33408;52.062;11.722;2023-06-10T06:20:02;14.95;;;5.95;;
47669;SDS011;33408;52.062;11.722;2023-06-10T06:22:30;12.77;;;5.93;;
47669;SDS011;33408;52.062;11.722;2023-06-10T06:24:56;12.23;;;6.22;;
47669;SDS011;33408;52.062;11.722;2023-06-10T06:27:23;13.20;;;6.22;;
47669;SDS011;33408;52.062;11.722;2023-06-10T06:29:51;12.43;;;6.18;;
47669;SDS011;33408;52.062;11.722;2023-06-10T06:32:18;12.63;;;5.85;;
47669;SDS011;33408;52.062;11.722;2023-06-10T06:34:45;13.60;;;5.93;;
47669;SDS011;33408;52.062;11.722;2023-06-10T06:37:14;15.15;;;6.65;;
47669;SDS011;33408;52.062;11.722;2023-06-10T06:39:41;13.50;;;5.75;;
47669;SDS011;33408;52.062;11.722;2023-06-10T06:42:08;11.68;;;5.80;;
47669;SDS011;33408;52.062;11.722;2023-06-10T06:44:35;11.85;;;6.45;;
47669;SDS011;33408;52.062;11.722;2023-06-10T06:47:03;11.00;;;5.63;;
47669;SDS011;33408;52.062;11.722;2023-06-10T06:49:30;11.52;;;5.95;;
47669;SDS011;33408;52.062;11.722;2023-06-10T06:51:57;12.27;;;6.93;;
47669;SDS011;33408;52.062;11.722;2023-06-10T06:54:23;11.30;;;5.55;;
47669;SDS011;33408;52.062;11.722;2023-06-10T06:56:50;11.65;;;5.78;;
47669;SDS011;33408;52.062;11.722;2023-06-10T06:59:17;9.93;;;5.38;;
47669;SDS011;33408;52.062;11.722;2023-06-10T07:01:44;11.00;;;6.03;;
47669;SDS011;33408;52.062;11.722;2023-06-10T07:04:14;12.82;;;5.53;;
47669;SDS011;33408;52.062;11.722;2023-06-10T07:06:41;11.05;;;5.70;;
47669;SDS011;33408;52.062;11.722;2023-06-10T07:09:08;11.98;;;5.78;;
47669;SDS011;33408;52.062;11.722;2023-06-10T07:11:35;12.13;;;5.67;;
47669;SDS011;33408;52.062;11.722;2023-06-10T07:14:01;12.10;;;6.15;;
47669;SDS011;33408;52.062;11.722;2023-06-10T07:16:28;10.10;;;5.93;;
47669;SDS011;33408;52.062;11.722;2023-06-10T07:18:55;11.60;;;5.90;;
47669;SDS011;33408;52.062;11.722;2023-06-10T07:21:23;11.52;;;5.75;;
47669;SDS011;33408;52.062;11.722;2023-06-10T07:23:50;12.45;;;6.55;;
47669;SDS011;33408;52.062;11.722;2023-06-10T07:26:18;11.65;;;6.25;;
47669;SDS011;33408;52.062;11.722;2023-06-10T07:28:45;12.85;;;6.72;;
47669;SDS011;33408;52.062;11.722;2023-06-10T07:31:12;11.57;;;6.07;;
47669;SDS011;33408;52.062;11.722;2023-06-10T07:33:39;12.75;;;6.40;;
47669;SDS011;33408;52.062;11.722;2023-06-10T07:36:06;16.13;;;6.75;;
47669;SDS011;33408;52.062;11.722;2023-06-10T07:38:34;14.23;;;6.70;;
47669;SDS011;33408;52.062;11.722;2023-06-10T07:41:01;15.55;;;5.97;;
47669;SDS011;33408;52.062;11.722;2023-06-10T07:43:28;13.65;;;6.63;;
47669;SDS011;33408;52.062;11.722;2023-06-10T07:45:54;12.63;;;6.60;;
47669;SDS011;33408;52.062;11.722;2023-06-10T07:48:21;30.63;;;7.22;;
47669;SDS011;33408;52.062;11.722;2023-06-10T07:50:48;11.27;;;6.00;;
47669;SDS011;33408;52.062;11.722;2023-06-10T07:53:15;16.55;;;7.22;;
47669;SDS011;33408;52.062;11.722;2023-06-10T07:55:43;12.48;;;7.28;;
47669;SDS011;33408;52.062;11.722;2023-06-10T07:58:09;12.55;;;6.25;;
47669;SDS011;33408;52.062;11.722;2023-06-10T08:00:36;16.98;;;7.38;;
47669;SDS011;33408;52.062;11.722;2023-06-10T08:03:03;14.35;;;7.30;;
47669;SDS011;33408;52.062;11.722;2023-06-10T08:05:30;11.80;;;6.75;;
47669;SDS011;33408;52.062;11.722;2023-06-10T08:07:56;14.02;;;6.22;;
47669;SDS011;33408;52.062;11.722;2023-06-10T08:10:23;11.70;;;6.53;;
47669;SDS011;33408;52.062;11.722;2023-06-10T08:12:51;14.73;;;6.32;;
47669;SDS011;33408;52.062;11.722;2023-06-10T08:15:19;13.65;;;6.50;;
47669;SDS011;33408;52.062;11.722;2023-06-10T08:17:45;12.75;;;7.03;;
47669;SDS011;33408;52.062;11.722;2023-06-10T08:20:12;11.57;;;5.88;;
47669;SDS011;33408;52.062;11.722;2023-06-10T08:22:39;19.02;;;7.35;;
47669;SDS011;33408;52.062;11.722;2023-06-10T08:25:06;12.45;;;6.43;;
47669;SDS011;33408;52.062;11.722;2023-06-10T08:27:34;10.60;;;5.95;;
47669;SDS011;33408;52.062;11.722;2023-06-10T08:30:03;13.43;;;6.22;;
47669;SDS011;33408;52.062;11.722;2023-06-10T08:32:30;12.63;;;6.80;;
47669;SDS011;33408;52.062;11.722;2023-06-10T08:34:57;11.73;;;6.68;;
47669;SDS011;33408;52.062;11.722;2023-06-10T08:37:24;15.25;;;6.88;;
47669;SDS011;33408;52.062;11.722;2023-06-10T08:39:50;15.15;;;7.15;;
47669;SDS011;33408;52.062;11.722;2023-06-10T08:42:20;14.13;;;6.55;;
47669;SDS011;33408;52.062;11.722;2023-06-10T08:44:50;12.85;;;6.40;;
47669;SDS011;33408;52.062;11.722;2023-06-10T08:47:22;11.23;;;7.10;;
47669;SDS011;33408;52.062;11.722;2023-06-10T08:49:50;11.43;;;6.38;;
47669;SDS011;33408;52.062;11.722;2023-06-10T08:52:19;13.52;;;7.05;;
47669;SDS011;33408;52.062;11.722;2023-06-10T08:54:48;12.50;;;6.65;;
47669;SDS011;33408;52.062;11.722;2023-06-10T08:59:46;13.40;;;6.55;;
47669;SDS011;33408;52.062;11.722;2023-06-10T09:02:13;11.48;;;6.25;;
47669;SDS011;33408;52.062;11.722;2023-06-10T09:04:46;11.43;;;6.80;;
47669;SDS011;33408;52.062;11.722;2023-06-10T09:07:13;13.05;;;6.45;;
47669;SDS011;33408;52.062;11.722;2023-06-10T09:09:42;12.82;;;7.18;;
47669;SDS011;33408;52.062;11.722;2023-06-10T09:12:09;9.50;;;6.32;;
47669;SDS011;33408;52.062;11.722;2023-06-10T09:14:36;10.45;;;6.43;;
47669;SDS011;33408;52.062;11.722;2023-06-10T09:17:03;12.85;;;8.05;;
47669;SDS011;33408;52.062;11.722;2023-06-10T09:19:31;14.77;;;6.10;;
47669;SDS011;33408;52.062;11.722;2023-06-10T09:21:59;13.90;;;6.22;;
47669;SDS011;33408;52.062;11.722;2023-06-10T09:24:26;11.32;;;6.85;;
47669;SDS011;33408;52.062;11.722;2023-06-10T09:27:01;9.70;;;6.13;;
47669;SDS011;33408;52.062;11.722;2023-06-10T09:29:28;12.65;;;7.35;;
47669;SDS011;33408;52.062;11.722;2023-06-10T09:31:55;12.63;;;7.25;;
47669;SDS011;33408;52.062;11.722;2023-06-10T09:34:24;12.77;;;6.88;;
47669;SDS011;33408;52.062;11.722;2023-06-10T09:36:52;12.63;;;6.68;;
47669;SDS011;33408;52.062;11.722;2023-06-10T09:39:22;12.48;;;6.03;;
47669;SDS011;33408;52.062;11.722;2023-06-10T09:41:49;12.93;;;6.45;;
47669;SDS011;33408;52.062;11.722;2023-06-10T09:44:16;11.40;;;6.43;;
47669;SDS011;33408;52.062;11.722;2023-06-10T09:46:45;13.25;;;6.55;;
47669;SDS011;33408;52.062;11.722;2023-06-10T09:49:12;11.35;;;6.68;;
47669;SDS011;33408;52.062;11.722;2023-06-10T09:51:47;10.18;;;5.65;;
47669;SDS011;33408;52.062;11.722;2023-06-10T09:54:16;10.93;;;6.68;;
47669;SDS011;33408;52.062;11.722;2023-06-10T09:56:44;11.75;;;5.82;;
47669;SDS011;33408;52.062;11.722;2023-06-10T09:59:13;10.07;;;6.03;;
47669;SDS011;33408;52.062;11.722;2023-06-10T10:01:41;11.80;;;5.88;;
47669;SDS011;33408;52.062;11.722;2023-06-10T10:04:08;12.00;;;6.40;;
47669;SDS011;33408;52.062;11.722;2023-06-10T10:06:34;10.55;;;5.80;;
47669;SDS011;33408;52.062;11.722;2023-06-10T10:09:02;13.77;;;6.07;;
47669;SDS011;33408;52.062;11.722;2023-06-10T10:11:30;14.05;;;6.20;;
47669;SDS011;33408;52.062;11.722;2023-06-10T10:14:04;10.63;;;6.72;;
47669;SDS011;33408;52.062;11.722;2023-06-10T10:16:33;11.55;;;6.25;;
47669;SDS011;33408;52.062;11.722;2023-06-10T10:19:07;10.88;;;6.28;;
47669;SDS011;33408;52.062;11.722;2023-06-10T10:21:38;11.90;;;6.07;;
47669;SDS011;33408;52.062;11.722;2023-06-10T10:24:12;8.95;;;6.10;;
47669;SDS011;33408;52.062;11.722;2023-06-10T10:26:42;13.07;;;6.57;;
47669;SDS011;33408;52.062;11.722;2023-06-10T10:29:14;10.90;;;6.72;;
47669;SDS011;33408;52.062;11.722;2023-06-10T10:31:46;11.20;;;5.55;;
47669;SDS011;33408;52.062;11.722;2023-06-10T10:34:16;12.32;;;6.03;;
47669;SDS011;33408;52.062;11.722;2023-06-10T10:36:47;9.60;;;6.18;;
47669;SDS011;33408;52.062;11.722;2023-06-10T10:39:15;9.48;;;5.88;;
47669;SDS011;33408;52.062;11.722;2023-06-10T10:41:42;9.90;;;5.60;;
47669;SDS011;33408;52.062;11.722;2023-06-10T10:44:10;10.95;;;5.97;;
47669;SDS011;33408;52.062;11.722;2023-06-10T10:46:45;9.80;;;4.85;;
47669;SDS011;33408;52.062;11.722;2023-06-10T10:49:15;10.35;;;5.68;;
47669;SDS011;33408;52.062;11.722;2023-06-10T10:51:56;8.63;;;5.22;;
47669;SDS011;33408;52.062;11.722;2023-06-10T10:54:29;9.15;;;5.40;;
47669;SDS011;33408;52.062;11.722;2023-06-10T10:57:09;10.20;;;6.57;;
47669;SDS011;33408;52.062;11.722;2023-06-10T10:59:44;12.52;;;5.65;;
47669;SDS011;33408;52.062;11.722;2023-06-10T11:02:40;10.75;;;5.60;;
47669;SDS011;33408;52.062;11.722;2023-06-10T11:05:09;10.32;;;5.85;;
47669;SDS011;33408;52.062;11.722;2023-06-10T11:07:37;10.52;;;5.25;;
47669;SDS011;33408;52.062;11.722;2023-06-10T11:10:06;9.98;;;6.03;;
47669;SDS011;33408;52.062;11.722;2023-06-10T11:12:40;9.27;;;5.70;;
47669;SDS011;33408;52.062;11.722;2023-06-10T11:15:08;9.20;;;5.47;;
47669;SDS011;33408;52.062;11.722;2023-06-10T11:17:35;8.80;;;5.38;;
47669;SDS011;33408;52.062;11.722;2023-06-10T11:20:03;10.93;;;6.28;;
47669;SDS011;33408;52.062;11.722;2023-06-10T11:22:32;11.15;;;6.18;;
47669;SDS011;33408;52.062;11.722;2023-06-10T11:24:59;8.63;;;5.55;;
47669;SDS011;33408;52.062;11.722;2023-06-10T11:27:26;8.95;;;5.28;;
47669;SDS011;33408;52.062;11.722;2023-06-10T11:32:49;8.55;;;4.95;;
47669;SDS011;33408;52.062;11.722;2023-06-10T11:35:19;10.27;;;5.40;;
47669;SDS011;33408;52.062;11.722;2023-06-10T11:37:46;9.45;;;6.10;;
47669;SDS011;33408;52.062;11.722;2023-06-10T11:40:14;10.25;;;5.65;;
47669;SDS011;33408;52.062;11.722;2023-06-10T11:42:41;12.48;;;5.60;;
47669;SDS011;33408;52.062;11.722;2023-06-10T11:45:09;10.45;;;5.93;;
47669;SDS011;33408;52.062;11.722;2023-06-10T11:47:36;10.15;;;5.68;;
47669;SDS011;33408;52.062;11.722;2023-06-10T11:50:03;9.85;;;5.47;;
47669;SDS011;33408;52.062;11.722;2023-06-10T11:52:32;8.63;;;5.47;;
47669;SDS011;33408;52.062;11.722;2023-06-10T11:55:03;9.10;;;5.40;;
47669;SDS011;33408;52.062;11.722;2023-06-10T11:57:33;7.35;;;4.90;;
47669;SDS011;33408;52.062;11.722;2023-06-10T12:00:03;7.75;;;4.72;;
47669;SDS011;33408;52.062;11.722;2023-06-10T12:02:31;8.73;;;4.80;;
47669;SDS011;33408;52.062;11.722;2023-06-10T12:05:09;11.52;;;5.28;;
47669;SDS011;33408;52.062;11.722;2023-06-10T12:07:37;11.02;;;5.40;;
47669;SDS011;33408;52.062;11.722;2023-06-10T12:10:04;9.00;;;5.47;;
47669;SDS011;33408;52.062;11.722;2023-06-10T12:12:34;9.60;;;5.22;;
47669;SDS011;33408;52.062;11.722;2023-06-10T12:15:01;12.90;;;6.43;;
47669;SDS011;33408;52.062;11.722;2023-06-10T12:17:37;8.23;;;5.07;;
47669;SDS011;33408;52.062;11.722;2023-06-10T12:20:04;8.40;;;5.07;;
47669;SDS011;33408;52.062;11.722;2023-06-10T12:22:35;9.45;;;5.45;;
47669;SDS011;33408;52.062;11.722;2023-06-10T12:25:05;8.60;;;4.82;;
47669;SDS011;33408;52.062;11.722;2023-06-10T12:27:33;12.73;;;5.50;;
47669;SDS011;33408;52.062;11.722;2023-06-10T12:30:00;7.85;;;4.95;;
47669;SDS011;33408;52.062;11.722;2023-06-10T12:32:36;12.23;;;5.45;;
47669;SDS011;33408;52.062;11.722;2023-06-10T12:35:05;9.95;;;5.32;;
47669;SDS011;33408;52.062;11.722;2023-06-10T12:37:33;10.27;;;5.18;;
47669;SDS011;33408;52.062;11.722;2023-06-10T12:40:01;9.43;;;5.97;;
47669;SDS011;33408;52.062;11.722;2023-06-10T12:42:29;13.15;;;5.47;;
47669;SDS011;33408;52.062;11.722;2023-06-10T12:44:56;13.52;;;5.80;;
47669;SDS011;33408;52.062;11.722;2023-06-10T12:47:29;8.07;;;5.10;;
47669;SDS011;33408;52.062;11.722;2023-06-10T12:49:56;10.27;;;5.22;;
47669;SDS011;33408;52.062;11.722;2023-06-10T12:52:23;9.38;;;5.50;;
47669;SDS011;33408;52.062;11.722;2023-06-10T12:54:50;10.25;;;5.18;;
47669;SDS011;33408;52.062;11.722;2023-06-10T12:57:19;6.57;;;4.50;;
47669;SDS011;33408;52.062;11.722;2023-06-10T12:59:46;7.72;;;5.25;;
47669;SDS011;33408;52.062;11.722;2023-06-10T13:02:17;9.63;;;5.53;;
47669;SDS011;33408;52.062;11.722;2023-06-10T13:04:44;8.38;;;3.90;;
47669;SDS011;33408;52.062;11.722;2023-06-10T13:07:11;11.80;;;5.47;;
47669;SDS011;33408;52.062;11.722;2023-06-10T13:09:39;7.38;;;4.40;;
47669;SDS011;33408;52.062;11.722;2023-06-10T13:12:06;8.43;;;4.60;;
47669;SDS011;33408;52.062;11.722;2023-06-10T13:14:36;8.73;;;4.70;;
47669;SDS011;33408;52.062;11.722;2023-06-10T13:17:04;9.60;;;5.28;;
47669;SDS011;33408;52.062;11.722;2023-06-10T13:19:32;8.57;;;4.65;;
47669;SDS011;33408;52.062;11.722;2023-06-10T13:21:59;11.52;;;5.00;;
47669;SDS011;33408;52.062;11.722;2023-06-10T13:24:26;7.47;;;4.60;;
47669;SDS011;33408;52.062;11.722;2023-06-10T13:26:53;8.48;;;4.95;;
47669;SDS011;33408;52.062;11.722;2023-06-10T13:29:20;9.35;;;4.82;;
47669;SDS011;33408;52.062;11.722;2023-06-10T13:31:48;7.63;;;4.22;;
47669;SDS011;33408;52.062;11.722;2023-06-10T13:34:15;8.82;;;4.43;;
47669;SDS011;33408;52.062;11.722;2023-06-10T13:36:41;8.15;;;4.78;;
47669;SDS011;33408;52.062;11.722;2023-06-10T13:39:08;7.93;;;4.93;;
47669;SDS011;33408;52.062;11.722;2023-06-10T13:41:35;10.60;;;5.63;;
47669;SDS011;33408;52.062;11.722;2023-06-10T13:44:02;10.73;;;5.10;;
47669;SDS011;33408;52.062;11.722;2023-06-10T13:46:28;13.73;;;4.97;;
47669;SDS011;33408;52.062;11.722;2023-06-10T13:48:57;12.20;;;5.60;;
47669;SDS011;33408;52.062;11.722;2023-06-10T13:51:23;15.57;;;5.15;;
47669;SDS011;33408;52.062;11.722;2023-06-10T13:53:50;12.15;;;5.25;;
47669;SDS011;33408;52.062;11.722;2023-06-10T13:56:17;12.50;;;5.40;;
47669;SDS011;33408;52.062;11.722;2023-06-10T13:58:44;9.43;;;5.82;;
47669;SDS011;33408;52.062;11.722;2023-06-10T14:01:11;9.30;;;5.22;;
47669;SDS011;33408;52.062;11.722;2023-06-10T14:03:38;10.30;;;6.13;;
47669;SDS011;33408;52.062;11.722;2023-06-10T14:06:06;10.90;;;5.45;;
47669;SDS011;33408;52.062;11.722;2023-06-10T14:08:33;11.90;;;5.88;;
47669;SDS011;33408;52.062;11.722;2023-06-10T14:10:59;10.18;;;6.32;;
47669;SDS011;33408;52.062;11.722;2023-06-10T14:13:26;10.10;;;5.43;;
47669;SDS011;33408;52.062;11.722;2023-06-10T14:15:53;8.25;;;5.68;;
47669;SDS011;33408;52.062;11.722;2023-06-10T14:18:20;11.00;;;5.90;;
47669;SDS011;33408;52.062;11.722;2023-06-10T14:20:46;13.10;;;6.32;;
47669;SDS011;33408;52.062;11.722;2023-06-10T14:23:14;17.38;;;7.57;;
47669;SDS011;33408;52.062;11.722;2023-06-10T14:25:41;11.50;;;6.05;;
47669;SDS011;33408;52.062;11.722;2023-06-10T14:28:08;18.15;;;6.82;;
47669;SDS011;33408;52.062;11.722;2023-06-10T14:30:35;12.10;;;7.10;;
47669;SDS011;33408;52.062;11.722;2023-06-10T14:33:01;13.98;;;7.15;;